Time;durP1;ratioP1;P1;durP2;ratioP2;P2;SDS_P1;SDS_P2;PMS_P1;PMS_P2;Temp;Humidity;BMP_temperature;BMP_pressure;BME280_temperature;BME280_humidity;BME280_pressure;Samples;Min_cycle;Max_cycle;Signal;HPM_P1;HPM_P2
2023/02/24 00:02:24;;;;;;;;;;;;;;;15.55;47.87;100082.34;4910922;28;98083;-67
2023/02/24 00:04:50;;;;;;;;;;;;;;;15.54;47.91;100079.97;4943080;28;97881;-67
2023/02/24 00:07:16;;;;;;;;;;;;;;;15.53;47.92;100075.66;4924804;28;98493;-67
2023/02/24 00:09:45;;;;;;;;;;;;;;;15.51;48.00;100073.22;4920347;28;97926;-67
2023/02/24 00:12:13;;;;;;;;;;;;;;;15.50;47.93;100074.34;4909421;28;98814;-66
2023/02/24 00:14:41;;;;;;;;;;;;;;;15.51;47.86;100069.69;4925271;28;98123;-66
2023/02/24 00:17:08;;;;;;;;;;;;;;;15.50;47.75;100071.63;4914539;28;98252;-68
2023/02/24 00:19:34;;;;;;;;;;;;;;;15.50;47.86;100068.09;4930120;28;98049;-67
2023/02/24 00:22:01;;;;;;;;;;;;;;;15.49;47.88;100064.59;4910865;28;97996;-66
2023/02/24 00:24:27;;;;;;;;;;;;;;;15.47;47.99;100067.59;4934483;28;101432;-67
2023/02/24 00:26:55;;;;;;;;;;;;;;;15.46;47.81;100060.56;4926814;28;98316;-67
2023/02/24 00:29:21;;;;;;;;;;;;;;;15.46;47.94;100059.78;4942008;28;98130;-66
2023/02/24 00:31:58;;;;;;;;;;;;;;;15.45;47.90;100066.31;4931103;28;98264;-67
2023/02/24 00:34:28;;;;;;;;;;;;;;;15.45;47.82;100063.59;4912272;28;99787;-66
2023/02/24 00:36:54;;;;;;;;;;;;;;;15.45;48.01;100060.91;4925853;28;98063;-67
2023/02/24 00:39:29;;;;;;;;;;;;;;;15.44;47.84;100056.56;4924041;28;98574;-67
2023/02/24 00:42:03;;;;;;;;;;;;;;;15.43;47.86;100058.47;4929381;28;99263;-67
2023/02/24 00:44:31;;;;;;;;;;;;;;;15.42;47.82;100065.03;4928905;28;98535;-66
2023/02/24 00:47:00;;;;;;;;;;;;;;;15.42;48.00;100064.22;4927374;28;98555;-66
2023/02/24 00:49:26;;;;;;;;;;;;;;;15.41;47.92;100060.72;4918845;28;97824;-66
2023/02/24 00:51:53;;;;;;;;;;;;;;;15.41;47.82;100057.19;4922933;28;112847;-66
2023/02/24 00:54:19;;;;;;;;;;;;;;;15.40;47.97;100050.94;4928200;28;98370;-67
2023/02/24 00:56:47;;;;;;;;;;;;;;;15.39;48.12;100051.25;4911054;28;99261;-66
2023/02/24 00:59:14;;;;;;;;;;;;;;;15.38;48.07;100046.94;4921301;28;98134;-66
2023/02/24 01:01:41;;;;;;;;;;;;;;;15.37;47.95;100048.88;4925670;28;98327;-67
2023/02/24 01:04:10;;;;;;;;;;;;;;;15.36;47.95;100043.72;4936815;28;97960;-66
2023/02/24 01:06:43;;;;;;;;;;;;;;;15.34;47.82;100041.31;4926347;28;98121;-67
2023/02/24 01:09:11;;;;;;;;;;;;;;;15.32;47.87;100043.53;4928154;28;98024;-66
2023/02/24 01:14:25;;;;;;;;;;;;;;;15.31;48.05;100038.41;4921435;28;98146;-66
2023/02/24 01:16:52;;;;;;;;;;;;;;;15.29;47.93;100035.19;4912653;28;100105;-67
2023/02/24 01:19:22;;;;;;;;;;;;;;;15.27;47.95;100030.09;4911000;28;101150;-67
2023/02/24 01:21:53;;;;;;;;;;;;;;;15.26;47.99;100031.22;4912921;28;98347;-66
2023/02/24 01:24:22;;;;;;;;;;;;;;;15.25;47.95;100031.50;4930574;28;98397;-67
2023/02/24 01:26:48;;;;;;;;;;;;;;;15.24;47.95;100025.28;4916608;28;99662;-66
2023/02/24 01:29:15;;;;;;;;;;;;;;;15.22;48.00;100019.38;4915113;28;97964;-66
2023/02/24 01:31:42;;;;;;;;;;;;;;;15.22;47.89;100017.44;4941467;28;97954;-66
2023/02/24 01:34:12;;;;;;;;;;;;;;;15.21;48.07;100020.47;4926032;28;98255;-67
2023/02/24 01:36:39;;;;;;;;;;;;;;;15.20;47.83;100011.50;4924748;28;98242;-67
2023/02/24 01:39:09;;;;;;;;;;;;;;;15.19;47.95;100015.34;4922347;28;98231;-66
2023/02/24 01:41:40;;;;;;;;;;;;;;;15.19;47.83;100017.25;4907959;28;99272;-66
2023/02/24 01:44:12;;;;;;;;;;;;;;;15.17;48.19;100009.44;4918104;28;99407;-67
2023/02/24 01:46:40;;;;;;;;;;;;;;;15.16;48.20;100007.00;4937486;28;98951;-66
2023/02/24 01:49:13;;;;;;;;;;;;;;;15.16;47.85;100004.28;4908044;28;97956;-66
2023/02/24 01:52:00;;;;;;;;;;;;;;;15.16;48.18;100012.44;4926100;28;99474;-66
2023/02/24 01:54:29;;;;;;;;;;;;;;;15.15;47.95;100005.41;4932355;28;98647;-66
2023/02/24 01:56:56;;;;;;;;;;;;;;;15.14;48.15;99999.19;4913219;28;98154;-66
2023/02/24 01:59:22;;;;;;;;;;;;;;;15.14;48.01;99998.38;4925200;28;97978;-66
2023/02/24 02:01:52;;;;;;;;;;;;;;;15.13;48.18;99994.06;4914143;28;98184;-66
2023/02/24 02:04:23;;;;;;;;;;;;;;;15.13;48.00;99991.34;4915086;28;97985;-66
2023/02/24 02:06:51;;;;;;;;;;;;;;;15.12;48.20;99997.88;4920660;28;99393;-67
2023/02/24 02:09:17;;;;;;;;;;;;;;;15.11;48.10;99990.84;4912881;28;98187;-67
2023/02/24 02:11:48;;;;;;;;;;;;;;;15.11;47.96;99988.16;4907617;28;98800;-67
2023/02/24 02:14:22;;;;;;;;;;;;;;;15.08;48.19;99991.47;4897017;28;98552;-66
2023/02/24 02:17:23;;;;;;;;;;;;;;;15.09;48.11;99990.34;4917812;28;99684;-66
2023/02/24 02:20:26;;;;;;;;;;;;;;;15.07;47.79;99982.53;4922427;28;98169;-67
2023/02/24 02:23:27;;;;;;;;;;;;;;;15.05;47.85;99986.66;4933660;28;99689;-66
2023/02/24 02:26:29;;;;;;;;;;;;;;;15.04;47.82;99985.06;4923631;28;98183;-66
2023/02/24 02:29:21;;;;;;;;;;;;;;;15.03;48.13;99983.47;4921121;28;98037;-66
2023/02/24 02:32:06;;;;;;;;;;;;;;;15.03;47.85;99986.16;4936545;28;99006;-66
2023/02/24 02:34:49;;;;;;;;;;;;;;;15.00;47.89;99981.34;4922840;28;97944;-66
2023/02/24 02:37:19;;;;;;;;;;;;;;;15.00;48.11;99981.34;4906429;28;98365;-66
2023/02/24 02:39:51;;;;;;;;;;;;;;;14.97;48.04;99989.00;4932766;28;98088;-67
2023/02/24 02:42:35;;;;;;;;;;;;;;;14.97;48.14;99980.88;4913984;28;98268;-67
2023/02/24 02:45:18;;;;;;;;;;;;;;;14.96;47.97;99978.44;4905230;28;97990;-67
2023/02/24 02:47:52;;;;;;;;;;;;;;;14.94;47.83;99973.34;4908341;28;100069;-66
2023/02/24 02:50:36;;;;;;;;;;;;;;;14.93;48.07;99977.16;4891331;28;98368;-67
2023/02/24 02:53:07;;;;;;;;;;;;;;;14.91;47.90;99973.94;4922902;28;98010;-66
2023/02/24 02:55:54;;;;;;;;;;;;;;;14.91;48.18;99979.38;4908945;28;98356;-67
2023/02/24 02:58:25;;;;;;;;;;;;;;;14.89;48.24;99973.44;4913348;28;99934;-67
2023/02/24 03:01:02;;;;;;;;;;;;;;;14.90;48.25;99974.28;4906959;28;99476;-67
2023/02/24 03:03:43;;;;;;;;;;;;;;;14.89;48.25;99973.44;4902766;28;98181;-67
2023/02/24 03:06:15;;;;;;;;;;;;;;;14.88;48.15;99962.91;4935150;28;97914;-66
2023/02/24 03:08:44;;;;;;;;;;;;;;;14.87;48.06;99970.25;4897128;28;98580;-67
2023/02/24 03:11:12;;;;;;;;;;;;;;;14.87;48.13;99958.59;4906347;28;100087;-68
2023/02/24 03:13:40;;;;;;;;;;;;;;;14.86;47.82;99960.50;4923858;28;98132;-66
2023/02/24 03:16:06;;;;;;;;;;;;;;;14.85;48.02;99956.16;4919099;28;98127;-66
2023/02/24 03:18:34;;;;;;;;;;;;;;;14.86;48.13;99965.16;4921533;28;100125;-66
2023/02/24 03:21:06;;;;;;;;;;;;;;;14.85;47.95;99958.09;4911171;28;98781;-67
2023/02/24 03:23:36;;;;;;;;;;;;;;;14.84;48.04;99959.22;4945493;28;99233;-66
2023/02/24 03:26:29;;;;;;;;;;;;;;;14.83;48.15;99961.13;4917086;28;98461;-66
2023/02/24 03:29:09;;;;;;;;;;;;;;;14.82;47.92;99953.31;4907761;28;98139;-67
2023/02/24 03:31:48;;;;;;;;;;;;;;;14.82;47.90;99956.00;4951385;28;98196;-67
2023/02/24 03:34:33;;;;;;;;;;;;;;;14.81;48.21;99948.97;4926402;28;98097;-67
2023/02/24 03:37:00;;;;;;;;;;;;;;;14.80;48.03;99941.94;4955333;28;97824;-67
2023/02/24 03:39:26;;;;;;;;;;;;;;;14.79;47.85;99940.34;4921339;28;98171;-67
2023/02/24 03:41:59;;;;;;;;;;;;;;;14.78;48.33;99936.84;4919677;28;112301;-67
2023/02/24 03:44:27;;;;;;;;;;;;;;;14.77;48.22;99946.06;4910265;28;98075;-67
2023/02/24 03:46:54;;;;;;;;;;;;;;;14.76;48.09;99939.03;4909960;28;97933;-66
2023/02/24 03:49:20;;;;;;;;;;;;;;;14.76;48.13;99932.81;4910674;28;98157;-67
2023/02/24 03:52:08;;;;;;;;;;;;;;;14.74;48.18;99938.56;4924049;28;98152;-66
2023/02/24 03:54:49;;;;;;;;;;;;;;;14.74;47.76;99941.28;4916434;28;98001;-67
2023/02/24 03:57:53;;;;;;;;;;;;;;;14.73;48.24;99939.66;4926595;28;97956;-66
2023/02/24 04:00:33;;;;;;;;;;;;;;;14.71;48.00;99929.13;4940709;28;97974;-66
2023/02/24 04:03:39;;;;;;;;;;;;;;;14.70;48.08;99932.16;4913303;28;98041;-67
2023/02/24 04:06:49;;;;;;;;;;;;;;;14.70;47.97;99932.94;4936454;28;98920;-67
2023/02/24 04:09:40;;;;;;;;;;;;;;;14.69;48.11;99925.88;4937210;28;98091;-67
2023/02/24 04:12:17;;;;;;;;;;;;;;;14.68;47.91;99924.28;4925532;28;98174;-67
2023/02/24 04:15:20;;;;;;;;;;;;;;;14.67;48.11;99927.31;4922841;28;97809;-67
2023/02/24 04:17:50;;;;;;;;;;;;;;;14.65;48.10;99922.19;4891736;28;98385;-66
2023/02/24 04:20:19;;;;;;;;;;;;;;;14.65;48.01;99922.19;4934093;28;99648;-66
2023/02/24 04:22:48;;;;;;;;;;;;;;;14.63;47.90;99921.72;4922139;28;98663;-66
2023/02/24 04:25:19;;;;;;;;;;;;;;;14.63;48.01;99929.06;4924704;28;100046;-66
2023/02/24 04:27:46;;;;;;;;;;;;;;;14.61;48.27;99918.50;4927461;28;98126;-66
2023/02/24 04:30:12;;;;;;;;;;;;;;;14.59;47.95;99912.59;4926723;28;100501;-66
2023/02/24 04:32:41;;;;;;;;;;;;;;;14.60;48.00;99916.09;4936007;28;98226;-66
2023/02/24 04:35:08;;;;;;;;;;;;;;;14.58;48.03;99905.56;4920092;28;99908;-66
2023/02/24 04:37:34;;;;;;;;;;;;;;;14.57;48.00;99914.00;4912351;28;98414;-67
2023/02/24 04:40:01;;;;;;;;;;;;;;;14.56;47.85;99909.69;4916257;28;98196;-66
2023/02/24 04:42:27;;;;;;;;;;;;;;;14.55;47.99;99906.19;4907051;28;98296;-66
2023/02/24 04:44:57;;;;;;;;;;;;;;;14.54;48.04;99904.59;4930205;28;98228;-67
2023/02/24 04:47:27;;;;;;;;;;;;;;;14.53;47.98;99902.97;4902667;28;98418;-67
2023/02/24 04:49:53;;;;;;;;;;;;;;;14.53;47.96;99907.59;4925806;28;98190;-67
2023/02/24 04:52:20;;;;;;;;;;;;;;;14.51;48.04;99899.75;4925788;28;99401;-67
2023/02/24 04:54:46;;;;;;;;;;;;;;;14.50;48.10;99898.13;4928515;28;99245;-67
2023/02/24 04:57:13;;;;;;;;;;;;;;;14.49;48.32;99897.34;4918137;28;98307;-67
2023/02/24 04:59:39;;;;;;;;;;;;;;;14.48;47.88;99894.91;4905250;28;98208;-67
2023/02/24 05:02:06;;;;;;;;;;;;;;;14.46;48.23;99892.53;4913644;28;100154;-67
2023/02/24 05:04:37;;;;;;;;;;;;;;;14.46;47.97;99894.41;4947494;28;98156;-67
2023/02/24 05:07:03;;;;;;;;;;;;;;;14.44;48.20;99893.94;4928202;28;99231;-68
2023/02/24 05:09:30;;;;;;;;;;;;;;;14.43;48.13;99897.75;4933263;28;97791;-67
2023/02/24 05:11:56;;;;;;;;;;;;;;;14.42;48.30;99894.25;4929198;28;99353;-68
2023/02/24 05:14:23;;;;;;;;;;;;;;;14.40;48.25;99891.03;4938078;28;98354;-67
2023/02/24 05:16:50;;;;;;;;;;;;;;;14.40;48.24;99901.06;4940445;28;98047;-68
2023/02/24 05:22:03;;;;;;;;;;;;;;;14.40;48.24;99898.34;4929502;28;98289;-67
2023/02/24 05:24:30;;;;;;;;;;;;;;;14.39;48.23;99894.84;4947264;28;99900;-68
2023/02/24 05:26:59;;;;;;;;;;;;;;;14.39;48.04;99896.75;4921751;28;98948;-67
2023/02/24 05:29:27;;;;;;;;;;;;;;;14.38;47.98;99893.25;4934667;28;98054;-68
2023/02/24 05:31:54;;;;;;;;;;;;;;;14.38;48.20;99900.56;4909721;28;100460;-67
2023/02/24 05:34:20;;;;;;;;;;;;;;;14.39;48.01;99899.47;4902795;28;98323;-68
2023/02/24 05:36:47;;;;;;;;;;;;;;;14.37;48.24;99888.13;4906610;28;99166;-68
2023/02/24 05:39:18;;;;;;;;;;;;;;;14.37;47.96;99886.22;4902663;28;98133;-68
2023/02/24 05:41:47;;;;;;;;;;;;;;;14.38;48.02;99889.72;4936537;28;98088;-68
2023/02/24 05:44:21;;;;;;;;;;;;;;;14.37;48.21;99877.28;4924616;28;98325;-67
2023/02/24 05:46:48;;;;;;;;;;;;;;;14.35;47.89;99879.50;4920298;28;98181;-68
2023/02/24 05:49:22;;;;;;;;;;;;;;;14.36;48.20;99886.53;4916264;28;98434;-68
2023/02/24 05:51:55;;;;;;;;;;;;;;;14.35;48.29;99885.72;4920605;28;98249;-67
2023/02/24 05:54:24;;;;;;;;;;;;;;;14.35;47.96;99895.78;4910650;28;98125;-66
2023/02/24 05:56:50;;;;;;;;;;;;;;;14.34;47.86;99896.84;4910041;28;99680;-67
2023/02/24 05:59:20;;;;;;;;;;;;;;;14.34;48.16;99888.72;4904554;28;99139;-67
2023/02/24 06:01:46;;;;;;;;;;;;;;;14.33;48.09;99890.63;4911832;28;98130;-67
2023/02/24 06:04:19;;;;;;;;;;;;;;;14.32;48.17;99899.09;4922897;28;98261;-67
2023/02/24 06:06:46;;;;;;;;;;;;;;;14.31;47.89;99895.59;4936029;28;98306;-67
2023/02/24 06:09:13;;;;;;;;;;;;;;;14.30;48.17;99910.22;4920364;28;98065;-67
2023/02/24 06:11:43;;;;;;;;;;;;;;;14.30;48.16;99904.00;4921889;28;99534;-67
2023/02/24 06:14:10;;;;;;;;;;;;;;;14.29;48.21;99907.81;4909980;28;99495;-67
2023/02/24 06:16:38;;;;;;;;;;;;;;;14.28;48.24;99898.91;4939138;28;98235;-67
2023/02/24 06:19:06;;;;;;;;;;;;;;;14.27;48.26;99894.59;4905591;28;98157;-67
2023/02/24 06:21:35;;;;;;;;;;;;;;;14.27;47.98;99891.09;4910930;28;97994;-68
2023/02/24 06:24:01;;;;;;;;;;;;;;;14.26;48.22;99890.25;4903233;28;97999;-68
2023/02/24 06:26:28;;;;;;;;;;;;;;;14.26;48.17;99892.97;4948417;28;99529;-68
2023/02/24 06:28:56;;;;;;;;;;;;;;;14.24;48.12;99893.28;4908853;28;98176;-67
2023/02/24 06:31:22;;;;;;;;;;;;;;;14.24;48.26;99893.28;4907896;28;98853;-67
2023/02/24 06:33:48;;;;;;;;;;;;;;;14.26;48.07;99898.38;4902552;28;98211;-68
2023/02/24 06:36:15;;;;;;;;;;;;;;;14.27;48.22;99896.50;4933382;28;99309;-68
2023/02/24 06:38:41;;;;;;;;;;;;;;;14.28;48.20;99903.53;4909386;28;98364;-67
2023/02/24 06:41:10;;;;;;;;;;;;;;;14.25;48.03;99900.28;4918687;28;98761;-67
2023/02/24 06:43:39;;;;;;;;;;;;;;;14.26;47.68;99898.38;4914603;28;98085;-67
2023/02/24 06:46:09;;;;;;;;;;;;;;;14.28;47.87;99898.09;4906307;28;98193;-67
2023/02/24 06:48:36;;;;;;;;;;;;;;;14.29;48.18;99903.19;4936802;28;98094;-68
2023/02/24 06:51:06;;;;;;;;;;;;;;;14.30;47.84;99896.66;4905031;28;98137;-67
2023/02/24 06:53:41;;;;;;;;;;;;;;;14.32;48.00;99897.19;4905134;28;98040;-68
2023/02/24 06:56:13;;;;;;;;;;;;;;;14.32;47.64;99896.38;4911072;28;98427;-66
2023/02/24 06:58:42;;;;;;;;;;;;;;;14.34;47.82;99899.56;4903888;28;98475;-66
2023/02/24 07:01:18;;;;;;;;;;;;;;;14.35;47.93;99895.78;4935198;28;98119;-67
2023/02/24 07:06:37;;;;;;;;;;;;;;;14.39;47.88;99892.13;4928236;28;98174;-67
2023/02/24 07:09:04;;;;;;;;;;;;;;;14.44;47.55;99883.09;4921352;28;98141;-66
2023/02/24 07:11:32;;;;;;;;;;;;;;;14.48;47.56;99875.94;4920764;28;98253;-67
2023/02/24 07:13:58;;;;;;;;;;;;;;;14.51;47.73;99872.66;4901560;28;100031;-68
2023/02/24 07:16:27;;;;;;;;;;;;;;;14.53;47.75;99875.03;4918027;28;110949;-69
2023/02/24 07:18:57;;;;;;;;;;;;;;;14.55;47.83;99878.25;4921726;28;98192;-67
2023/02/24 07:21:25;;;;;;;;;;;;;;;14.56;47.68;99871.72;4918154;28;100025;-67
2023/02/24 07:23:55;;;;;;;;;;;;;;;14.56;47.58;99867.09;4917145;28;98516;-68
2023/02/24 07:26:23;;;;;;;;;;;;;;;14.57;47.55;99870.59;4907093;28;99031;-67
2023/02/24 07:28:49;;;;;;;;;;;;;;;14.58;47.64;99867.59;4920746;28;98445;-67
2023/02/24 07:31:17;;;;;;;;;;;;;;;14.63;47.84;99869.38;4934932;28;97902;-68
2023/02/24 07:33:45;;;;;;;;;;;;;;;14.65;47.84;99859.81;4922860;28;98087;-68
2023/02/24 07:36:21;;;;;;;;;;;;;;;14.73;47.47;99852.84;4902101;28;98295;-67
2023/02/24 07:38:51;;;;;;;;;;;;;;;14.74;47.68;99851.75;4907515;28;98196;-68
2023/02/24 07:41:18;;;;;;;;;;;;;;;14.77;47.51;99845.69;4931568;28;98271;-67
2023/02/24 07:43:45;;;;;;;;;;;;;;;14.79;47.53;99848.09;4921479;28;98258;-68
2023/02/24 07:46:15;;;;;;;;;;;;;;;14.80;47.61;99842.34;4940126;28;101587;-68
2023/02/24 07:48:41;;;;;;;;;;;;;;;14.82;47.62;99837.44;4899710;28;99330;-68
2023/02/24 07:51:18;;;;;;;;;;;;;;;14.84;47.77;99832.47;4907710;28;97983;-68
2023/02/24 07:53:47;;;;;;;;;;;;;;;14.87;47.66;99831.88;4924602;28;98002;-67
2023/02/24 07:56:16;;;;;;;;;;;;;;;14.92;47.41;99825.50;4922503;28;98044;-67
2023/02/24 07:58:43;;;;;;;;;;;;;;;15.00;47.52;99827.47;4914807;28;98268;-67
2023/02/24 08:01:21;;;;;;;;;;;;;;;15.06;47.26;99820.00;4926399;28;98108;-67
2023/02/24 08:03:54;;;;;;;;;;;;;;;15.06;47.36;99820.00;4930158;28;98199;-68
2023/02/24 08:06:32;;;;;;;;;;;;;;;15.09;47.33;99822.91;4911639;28;98216;-68
2023/02/24 08:08:58;;;;;;;;;;;;;;;15.15;47.56;99812.69;4925621;28;97977;-67
2023/02/24 08:11:34;;;;;;;;;;;;;;;15.22;47.36;99802.19;4925270;28;98202;-69
2023/02/24 08:14:01;;;;;;;;;;;;;;;15.27;47.14;99807.47;4939501;28;98465;-69
2023/02/24 08:16:38;;;;;;;;;;;;;;;15.26;47.24;99794.22;4949963;28;98698;-68
2023/02/24 08:19:12;;;;;;;;;;;;;;;15.28;47.11;99791.97;4925749;28;98212;-67
2023/02/24 08:22:17;;;;;;;;;;;;;;;15.31;47.29;99791.34;4910677;28;100245;-66
2023/02/24 08:24:49;;;;;;;;;;;;;;;15.29;47.19;99788.97;4926628;28;100547;-67
2023/02/24 08:27:19;;;;;;;;;;;;;;;15.29;47.13;99775.38;4907116;28;99796;-68
2023/02/24 08:29:57;;;;;;;;;;;;;;;15.36;47.23;99772.19;4923799;28;98117;-67
2023/02/24 08:32:35;;;;;;;;;;;;;;;15.49;46.88;99765.84;4907910;28;98650;-67
2023/02/24 08:35:15;;;;;;;;;;;;;;;15.69;46.82;99759.03;4925208;28;98182;-67
2023/02/24 08:37:46;;;;;;;;;;;;;;;15.81;46.66;99756.47;4924852;28;97900;-68
2023/02/24 08:42:59;;;;;;;;;;;;;;;15.98;46.83;99757.59;4927253;28;98161;-67
2023/02/24 08:45:32;;;;;;;;;;;;;;;16.07;46.56;99747.50;4927266;28;100118;-69
2023/02/24 08:47:59;;;;;;;;;;;;;;;16.22;46.25;99747.03;4906500;28;98151;-67
2023/02/24 08:50:32;;;;;;;;;;;;;;;16.36;46.47;99741.41;4910411;28;98378;-69
2023/02/24 08:52:59;;;;;;;;;;;;;;;16.55;46.20;99735.63;4911148;28;98268;-67
2023/02/24 08:55:31;;;;;;;;;;;;;;;16.72;46.12;99742.91;4921742;28;97951;-67
2023/02/24 08:58:00;;;;;;;;;;;;;;;16.85;46.15;99734.56;4906848;28;98383;-68
2023/02/24 09:00:47;;;;;;;;;;;;;;;16.97;46.12;99733.06;4921909;28;98101;-67
2023/02/24 09:03:26;;;;;;;;;;;;;;;17.25;46.00;99728.78;4925263;28;99690;-68
2023/02/24 09:06:04;;;;;;;;;;;;;;;17.54;45.62;99713.53;4928407;28;100993;-67
2023/02/24 09:08:31;;;;;;;;;;;;;;;18.44;44.84;99714.84;4909245;28;103079;-69
2023/02/24 09:10:59;;;;;;;;;;;;;;;18.40;45.01;99725.63;4907112;28;97937;-68
2023/02/24 09:13:32;;;;;;;;;;;;;;;18.49;45.25;99707.22;4912550;28;99704;-68
2023/02/24 09:16:15;;;;;;;;;;;;;;;18.52;45.25;99717.47;4926083;28;98100;-67
2023/02/24 09:18:42;;;;;;;;;;;;;;;18.57;45.31;99710.97;4915139;28;99092;-68
2023/02/24 09:21:43;;;;;;;;;;;;;;;18.30;45.70;99706.94;4922151;28;98266;-69
2023/02/24 09:24:06;;;;;;;;;;;;;;;18.01;46.28;99705.16;4926552;28;98410;-68
2023/02/24 09:26:42;;;;;;;;;;;;;;;17.80;46.32;99695.06;4924341;28;98352;-67
2023/02/24 09:32:05;;;;;;;;;;;;;;;17.60;46.58;99683.00;4923257;28;98448;-67
2023/02/24 09:34:35;;;;;;;;;;;;;;;17.52;46.63;99680.34;4930040;28;97993;-68
2023/02/24 09:37:02;;;;;;;;;;;;;;;17.47;46.55;99675.09;4905009;28;99939;-68
2023/02/24 09:42:45;;;;;;;;;;;;;;;17.22;47.06;99668.72;4861270;28;97945;-67
2023/02/24 09:45:31;;;;;;;;;;;;;;;17.20;46.78;99658.16;4908978;28;97998;-68
2023/02/24 09:48:09;;;;;;;;;;;;;;;17.18;46.69;99658.50;4912312;28;100116;-66
2023/02/24 09:50:45;;;;;;;;;;;;;;;17.18;46.78;99653.03;4909843;28;100010;-67
2023/02/24 09:53:13;;;;;;;;;;;;;;;17.15;46.79;99648.25;4916956;28;99181;-68
2023/02/24 09:56:02;;;;;;;;;;;;;;;17.10;46.83;99642.22;4909244;28;98147;-68
2023/02/24 09:58:57;;;;;;;;;;;;;;;17.01;46.69;99636.81;4926676;28;98105;-69
2023/02/24 10:01:48;;;;;;;;;;;;;;;17.00;46.84;99628.97;4934714;28;98703;-69
2023/02/24 10:04:35;;;;;;;;;;;;;;;17.02;46.82;99627.53;4911858;28;98056;-67
2023/02/24 10:07:16;;;;;;;;;;;;;;;17.08;46.75;99619.94;4921276;28;98252;-68
2023/02/24 10:10:18;;;;;;;;;;;;;;;17.31;46.28;99620.44;4942799;28;98205;-68
2023/02/24 10:13:13;;;;;;;;;;;;;;;17.35;46.33;99611.25;4924978;28;98120;-69
2023/02/24 10:18:41;;;;;;;;;;;;;;;17.63;46.20;99595.16;4921214;28;98320;-67
2023/02/24 10:21:14;;;;;;;;;;;;;;;17.65;46.12;99589.38;4924945;28;98355;-68
2023/02/24 10:23:55;;;;;;;;;;;;;;;17.66;46.10;99586.31;4937704;28;98033;-67
2023/02/24 10:26:31;;;;;;;;;;;;;;;17.94;45.91;99580.28;4935809;28;98955;-67
2023/02/24 10:29:21;;;;;;;;;;;;;;;18.06;45.91;99579.50;4934301;28;98387;-68
2023/02/24 10:31:56;;;;;;;;;;;;;;;18.03;45.86;99572.00;4935427;28;98471;-68
2023/02/24 10:34:30;;;;;;;;;;;;;;;17.85;46.21;99564.03;4903907;28;98170;-67
2023/02/24 10:36:59;;;;;;;;;;;;;;;17.82;46.25;99561.97;4903617;28;98174;-66
2023/02/24 10:39:25;;;;;;;;;;;;;;;17.83;46.41;99560.81;4908461;28;99370;-68
2023/02/24 10:41:57;;;;;;;;;;;;;;;17.67;46.46;99551.69;4907193;28;99531;-69
2023/02/24 10:44:24;;;;;;;;;;;;;;;17.56;46.68;99551.28;4906341;28;100200;-67
2023/02/24 10:47:10;;;;;;;;;;;;;;;17.48;46.65;99546.72;4906442;28;98099;-68
2023/02/24 10:49:58;;;;;;;;;;;;;;;17.46;46.57;99538.09;4933277;28;98213;-69
2023/02/24 10:52:49;;;;;;;;;;;;;;;17.59;46.57;99536.22;4906326;28;100027;-69
2023/02/24 10:56:25;;;;;;;;;;;;;;;17.82;45.97;99518.34;4936873;28;99692;-67
2023/02/24 10:58:43;;;;;;;;;;;;;;;17.84;46.28;99521.56;4928494;28;101238;-67
2023/02/24 11:01:45;;;;;;;;;;;;;;;18.05;46.14;99507.03;4921151;28;116536;-67
2023/02/24 11:07:08;;;;;;;;;;;;;;;18.06;46.06;99501.22;4948304;28;98126;-67
2023/02/24 11:09:42;;;;;;;;;;;;;;;17.98;46.19;99493.16;4923235;28;98276;-68
2023/02/24 11:17:55;;;;;;;;;;;;;;;17.81;46.50;99475.09;4921694;28;100029;-68
2023/02/24 11:20:36;;;;;;;;;;;;;;;17.77;46.34;99474.97;4900818;28;98022;-66
2023/02/24 11:23:05;;;;;;;;;;;;;;;17.65;46.43;99467.56;4920330;28;98812;-68
2023/02/24 11:25:38;;;;;;;;;;;;;;;17.48;46.81;99467.72;4945762;28;99590;-66
2023/02/24 11:28:06;;;;;;;;;;;;;;;17.34;46.88;99465.31;4915375;28;99018;-67
2023/02/24 11:30:42;;;;;;;;;;;;;;;17.22;46.95;99453.59;4920486;28;98110;-67
2023/02/24 11:33:22;;;;;;;;;;;;;;;17.14;46.96;99449.84;4922240;28;98303;-68
2023/02/24 11:36:11;;;;;;;;;;;;;;;17.11;46.94;99451.28;4917569;28;98548;-69
2023/02/24 11:39:03;;;;;;;;;;;;;;;17.04;46.93;99431.97;4904441;28;98207;-69
2023/02/24 11:41:39;;;;;;;;;;;;;;;16.92;47.08;99429.22;4906809;28;98381;-69
2023/02/24 11:44:18;;;;;;;;;;;;;;;16.82;47.21;99433.16;4915356;28;101690;-68
2023/02/24 11:46:53;;;;;;;;;;;;;;;16.78;47.18;99417.81;4902981;28;98141;-68
2023/02/24 11:49:31;;;;;;;;;;;;;;;16.71;47.04;99417.53;4922727;28;97996;-68
2023/02/24 11:51:58;;;;;;;;;;;;;;;16.60;47.22;99409.78;4938826;28;98219;-67
2023/02/24 11:54:24;;;;;;;;;;;;;;;16.53;47.24;99400.56;4899422;28;98337;-67
2023/02/24 11:56:58;;;;;;;;;;;;;;;16.45;47.32;99402.22;4920310;28;130295;-66
2023/02/24 11:59:33;;;;;;;;;;;;;;;16.37;47.34;99395.69;4916610;28;98034;-67
2023/02/24 12:02:21;;;;;;;;;;;;;;;16.29;47.30;99393.84;4934019;28;98371;-67
2023/02/24 12:04:52;;;;;;;;;;;;;;;16.23;47.27;99394.38;4924060;28;99269;-67
2023/02/24 12:07:22;;;;;;;;;;;;;;;16.15;47.23;99390.56;4931065;28;98045;-67
2023/02/24 12:10:00;;;;;;;;;;;;;;;16.14;47.60;99389.00;4918868;28;98274;-66
2023/02/24 12:12:35;;;;;;;;;;;;;;;16.25;47.21;99373.09;4920175;28;98108;-68
2023/02/24 12:15:04;;;;;;;;;;;;;;;16.43;47.29;99363.69;4932151;28;100064;-66
2023/02/24 12:17:40;;;;;;;;;;;;;;;16.51;47.10;99365.53;4930224;28;99150;-69
2023/02/24 12:20:12;;;;;;;;;;;;;;;16.59;47.11;99359.22;4919938;28;98246;-68
2023/02/24 12:23:00;;;;;;;;;;;;;;;16.60;47.11;99351.84;4944871;28;98385;-67
2023/02/24 12:25:28;;;;;;;;;;;;;;;16.57;47.16;99344.34;4908457;28;99826;-68
2023/02/24 12:28:12;;;;;;;;;;;;;;;16.57;47.19;99341.63;4919679;28;98213;-67
2023/02/24 12:30:56;;;;;;;;;;;;;;;16.52;47.18;99339.13;4907913;28;97913;-68
2023/02/24 12:33:37;;;;;;;;;;;;;;;16.47;47.31;99334.69;4915901;28;98024;-68
2023/02/24 12:36:42;;;;;;;;;;;;;;;16.44;47.33;99327.97;4946072;28;98732;-68
2023/02/24 12:39:19;;;;;;;;;;;;;;;16.41;47.38;99325.13;4933866;28;98320;-69
2023/02/24 12:41:57;;;;;;;;;;;;;;;16.51;47.23;99313.84;4932809;28;98738;-67
2023/02/24 12:44:49;;;;;;;;;;;;;;;16.67;46.90;99308.59;4908517;28;97953;-68
2023/02/24 12:47:31;;;;;;;;;;;;;;;16.80;46.74;99302.06;4939262;28;98359;-67
2023/02/24 12:50:09;;;;;;;;;;;;;;;16.88;46.96;99300.38;4919967;28;98932;-69
2023/02/24 12:52:42;;;;;;;;;;;;;;;16.87;46.86;99305.03;4935166;28;98332;-68
2023/02/24 12:55:51;;;;;;;;;;;;;;;16.86;47.07;99292.56;4916447;28;98700;-69
2023/02/24 12:58:22;;;;;;;;;;;;;;;16.84;46.99;99280.41;4900724;28;98233;-67
2023/02/24 13:00:53;;;;;;;;;;;;;;;16.77;47.07;99291.06;4924524;28;98027;-68
2023/02/24 13:03:45;;;;;;;;;;;;;;;16.70;47.25;99280.69;4906537;28;98443;-67
2023/02/24 13:06:26;;;;;;;;;;;;;;;16.64;47.23;99271.94;4926443;28;98161;-67
2023/02/24 13:09:09;;;;;;;;;;;;;;;16.58;47.16;99270.56;4952571;28;98241;-69
2023/02/24 13:11:55;;;;;;;;;;;;;;;16.55;47.27;99265.03;4924612;28;98165;-67
2023/02/24 13:14:33;;;;;;;;;;;;;;;16.54;47.30;99253.31;4924571;28;98272;-68
2023/02/24 13:17:11;;;;;;;;;;;;;;;16.55;47.15;99254.16;4923764;28;98253;-67
2023/02/24 13:19:38;;;;;;;;;;;;;;;16.54;47.07;99256.03;4947261;28;97961;-67
2023/02/24 13:22:07;;;;;;;;;;;;;;;16.55;47.19;99251.44;4907468;28;98245;-68
2023/02/24 13:24:34;;;;;;;;;;;;;;;16.58;47.11;99254.25;4924225;28;98061;-69
2023/02/24 13:27:27;;;;;;;;;;;;;;;16.60;47.14;99249.28;4909412;28;98014;-68
2023/02/24 13:30:16;;;;;;;;;;;;;;;16.70;46.98;99234.44;4916853;28;97970;-69
2023/02/24 13:32:44;;;;;;;;;;;;;;;16.73;46.85;99231.06;4936379;28;100557;-67
2023/02/24 13:35:19;;;;;;;;;;;;;;;16.73;46.87;99232.97;4910094;28;98316;-67
2023/02/24 13:37:46;;;;;;;;;;;;;;;16.81;46.82;99219.28;4947156;28;98167;-67
2023/02/24 13:40:21;;;;;;;;;;;;;;;16.89;46.88;99220.31;4926098;28;97972;-67
2023/02/24 13:42:56;;;;;;;;;;;;;;;16.95;46.81;99207.31;4951985;28;98004;-68
2023/02/24 13:45:23;;;;;;;;;;;;;;;16.98;46.67;99212.03;4931254;28;98110;-68
2023/02/24 13:47:55;;;;;;;;;;;;;;;16.97;46.71;99216.69;4905208;28;98130;-67
2023/02/24 13:50:26;;;;;;;;;;;;;;;16.93;46.82;99213.06;4916652;28;99700;-67